sensor_id;sensor_type;location;lat;lon;timestamp;temperature;humidity
20700;DHT22;10511;51.232;9.420;2022-12-29T00:01:28;8.40;99.90
20700;DHT22;10511;51.232;9.420;2022-12-29T00:03:55;8.40;99.90
20700;DHT22;10511;51.232;9.420;2022-12-29T00:06:22;8.40;99.90
20700;DHT22;10511;51.232;9.420;2022-12-29T00:08:49;8.40;99.90
20700;DHT22;10511;51.232;9.420;2022-12-29T00:11:18;8.40;99.90
20700;DHT22;10511;51.232;9.420;2022-12-29T00:13:45;8.50;99.90
20700;DHT22;10511;51.232;9.420;2022-12-29T00:16:32;8.50;99.90
20700;DHT22;10511;51.232;9.420;2022-12-29T00:18:59;8.50;99.90
20700;DHT22;10511;51.232;9.420;2022-12-29T00:21:26;8.50;99.90
20700;DHT22;10511;51.232;9.420;2022-12-29T00:24:22;8.50;99.90
20700;DHT22;10511;51.232;9.420;2022-12-29T00:27:11;8.60;99.90
20700;DHT22;10511;51.232;9.420;2022-12-29T00:29:56;8.60;99.90
20700;DHT22;10511;51.232;9.420;2022-12-29T00:32:42;8.50;99.90
20700;DHT22;10511;51.232;9.420;2022-12-29T00:35:29;8.60;99.90
20700;DHT22;10511;51.232;9.420;2022-12-29T00:37:58;8.60;99.90
20700;DHT22;10511;51.232;9.420;2022-12-29T00:40:45;8.60;99.90
20700;DHT22;10511;51.232;9.420;2022-12-29T00:43:29;8.60;99.90
20700;DHT22;10511;51.232;9.420;2022-12-29T00:46:13;8.60;99.90
20700;DHT22;10511;51.232;9.420;2022-12-29T00:48:41;8.60;99.90
20700;DHT22;10511;51.232;9.420;2022-12-29T00:51:25;8.50;99.90
20700;DHT22;10511;51.232;9.420;2022-12-29T00:53:52;8.60;99.90
20700;DHT22;10511;51.232;9.420;2022-12-29T00:56:19;8.60;99.90
20700;DHT22;10511;51.232;9.420;2022-12-29T00:58:45;8.70;99.90
20700;DHT22;10511;51.232;9.420;2022-12-29T01:01:12;8.70;99.90
20700;DHT22;10511;51.232;9.420;2022-12-29T01:03:41;8.70;99.90
20700;DHT22;10511;51.232;9.420;2022-12-29T01:06:09;8.70;99.90
20700;DHT22;10511;51.232;9.420;2022-12-29T01:08:37;8.70;99.90
20700;DHT22;10511;51.232;9.420;2022-12-29T01:11:06;8.70;99.90
20700;DHT22;10511;51.232;9.420;2022-12-29T01:13:32;8.80;99.90
20700;DHT22;10511;51.232;9.420;2022-12-29T01:15:59;8.80;99.90
20700;DHT22;10511;51.232;9.420;2022-12-29T01:18:27;8.90;99.90
20700;DHT22;10511;51.232;9.420;2022-12-29T01:20:59;8.80;99.90
20700;DHT22;10511;51.232;9.420;2022-12-29T01:23:26;8.90;99.90
20700;DHT22;10511;51.232;9.420;2022-12-29T01:25:53;8.90;99.90
20700;DHT22;10511;51.232;9.420;2022-12-29T01:28:21;8.90;99.90
20700;DHT22;10511;51.232;9.420;2022-12-29T01:30:48;8.90;99.90
20700;DHT22;10511;51.232;9.420;2022-12-29T01:33:14;9.00;99.90
20700;DHT22;10511;51.232;9.420;2022-12-29T01:35:41;9.00;99.90
20700;DHT22;10511;51.232;9.420;2022-12-29T01:38:09;9.00;99.90
20700;DHT22;10511;51.232;9.420;2022-12-29T01:40:43;9.00;99.90
20700;DHT22;10511;51.232;9.420;2022-12-29T01:43:11;9.00;99.90
20700;DHT22;10511;51.232;9.420;2022-12-29T01:45:40;9.10;99.90
20700;DHT22;10511;51.232;9.420;2022-12-29T01:48:10;9.00;99.90
20700;DHT22;10511;51.232;9.420;2022-12-29T01:50:40;9.10;99.90
20700;DHT22;10511;51.232;9.420;2022-12-29T01:53:13;9.10;99.90
20700;DHT22;10511;51.232;9.420;2022-12-29T01:55:44;9.10;99.90
20700;DHT22;10511;51.232;9.420;2022-12-29T01:58:13;9.10;99.90
20700;DHT22;10511;51.232;9.420;2022-12-29T02:00:41;9.10;99.90
20700;DHT22;10511;51.232;9.420;2022-12-29T02:03:08;9.10;99.90
20700;DHT22;10511;51.232;9.420;2022-12-29T02:05:40;9.10;99.90
20700;DHT22;10511;51.232;9.420;2022-12-29T02:08:10;9.10;99.90
20700;DHT22;10511;51.232;9.420;2022-12-29T02:10:38;9.20;99.90
20700;DHT22;10511;51.232;9.420;2022-12-29T02:13:05;9.10;99.90
20700;DHT22;10511;51.232;9.420;2022-12-29T02:15:39;9.20;99.90
20700;DHT22;10511;51.232;9.420;2022-12-29T02:18:21;9.20;99.90
20700;DHT22;10511;51.232;9.420;2022-12-29T02:21:06;9.20;99.90
20700;DHT22;10511;51.232;9.420;2022-12-29T02:24:16;9.30;99.90
20700;DHT22;10511;51.232;9.420;2022-12-29T02:27:05;9.20;99.90
20700;DHT22;10511;51.232;9.420;2022-12-29T02:29:59;9.20;99.90
20700;DHT22;10511;51.232;9.420;2022-12-29T02:32:39;9.20;99.90
20700;DHT22;10511;51.232;9.420;2022-12-29T02:35:19;9.20;99.90
20700;DHT22;10511;51.232;9.420;2022-12-29T02:37:58;9.30;99.90
20700;DHT22;10511;51.232;9.420;2022-12-29T02:40:35;9.30;99.90
20700;DHT22;10511;51.232;9.420;2022-12-29T02:43:14;9.20;99.90
20700;DHT22;10511;51.232;9.420;2022-12-29T02:45:49;9.20;99.90
20700;DHT22;10511;51.232;9.420;2022-12-29T02:48:24;9.20;99.90
20700;DHT22;10511;51.232;9.420;2022-12-29T02:50:56;9.20;99.90
20700;DHT22;10511;51.232;9.420;2022-12-29T02:53:25;9.20;99.90
20700;DHT22;10511;51.232;9.420;2022-12-29T02:56:07;9.20;99.90
20700;DHT22;10511;51.232;9.420;2022-12-29T02:58:33;9.20;99.90
20700;DHT22;10511;51.232;9.420;2022-12-29T03:01:18;9.30;99.90
20700;DHT22;10511;51.232;9.420;2022-12-29T03:04:00;9.30;99.90
20700;DHT22;10511;51.232;9.420;2022-12-29T03:06:38;9.30;99.90
20700;DHT22;10511;51.232;9.420;2022-12-29T03:09:24;9.30;99.90
20700;DHT22;10511;51.232;9.420;2022-12-29T03:11:58;9.30;99.90
20700;DHT22;10511;51.232;9.420;2022-12-29T03:14:44;9.30;99.90
20700;DHT22;10511;51.232;9.420;2022-12-29T03:17:36;9.30;99.90
20700;DHT22;10511;51.232;9.420;2022-12-29T03:20:08;9.30;99.90
20700;DHT22;10511;51.232;9.420;2022-12-29T03:22:40;9.30;99.90
20700;DHT22;10511;51.232;9.420;2022-12-29T03:25:10;9.30;99.90
20700;DHT22;10511;51.232;9.420;2022-12-29T03:27:43;9.30;99.90
20700;DHT22;10511;51.232;9.420;2022-12-29T03:30:12;9.30;99.90
20700;DHT22;10511;51.232;9.420;2022-12-29T03:32:42;9.40;99.90
20700;DHT22;10511;51.232;9.420;2022-12-29T03:35:15;9.40;99.90
20700;DHT22;10511;51.232;9.420;2022-12-29T03:37:47;9.50;99.90
20700;DHT22;10511;51.232;9.420;2022-12-29T03:40:16;9.60;99.90
20700;DHT22;10511;51.232;9.420;2022-12-29T03:42:44;9.60;99.90
20700;DHT22;10511;51.232;9.420;2022-12-29T03:45:11;9.60;99.90
20700;DHT22;10511;51.232;9.420;2022-12-29T03:47:38;9.60;99.90
20700;DHT22;10511;51.232;9.420;2022-12-29T03:50:06;9.70;99.90
20700;DHT22;10511;51.232;9.420;2022-12-29T03:52:35;9.80;99.90
20700;DHT22;10511;51.232;9.420;2022-12-29T03:55:02;9.80;99.90
20700;DHT22;10511;51.232;9.420;2022-12-29T03:57:29;9.80;99.90
20700;DHT22;10511;51.232;9.420;2022-12-29T03:59:56;9.90;99.90
20700;DHT22;10511;51.232;9.420;2022-12-29T04:02:23;10.00;99.90
20700;DHT22;10511;51.232;9.420;2022-12-29T04:04:49;10.00;99.90
20700;DHT22;10511;51.232;9.420;2022-12-29T04:07:16;10.00;99.90
20700;DHT22;10511;51.232;9.420;2022-12-29T04:09:44;10.10;99.90
20700;DHT22;10511;51.232;9.420;2022-12-29T04:12:11;10.10;99.90
20700;DHT22;10511;51.232;9.420;2022-12-29T04:14:39;10.10;99.90
20700;DHT22;10511;51.232;9.420;2022-12-29T04:17:06;10.10;99.90
20700;DHT22;10511;51.232;9.420;2022-12-29T04:19:33;10.10;99.90
20700;DHT22;10511;51.232;9.420;2022-12-29T04:22:00;9.90;99.90
20700;DHT22;10511;51.232;9.420;2022-12-29T04:24:27;9.80;99.90
20700;DHT22;10511;51.232;9.420;2022-12-29T04:26:55;9.70;99.90
20700;DHT22;10511;51.232;9.420;2022-12-29T04:29:22;9.60;99.90
20700;DHT22;10511;51.232;9.420;2022-12-29T04:31:49;9.40;99.90
20700;DHT22;10511;51.232;9.420;2022-12-29T04:34:16;9.40;99.90
20700;DHT22;10511;51.232;9.420;2022-12-29T04:36:43;9.30;99.90
20700;DHT22;10511;51.232;9.420;2022-12-29T04:39:09;9.30;99.90
20700;DHT22;10511;51.232;9.420;2022-12-29T04:41:36;9.30;99.90
20700;DHT22;10511;51.232;9.420;2022-12-29T04:44:05;9.30;99.90
20700;DHT22;10511;51.232;9.420;2022-12-29T04:46:32;9.30;99.90
20700;DHT22;10511;51.232;9.420;2022-12-29T04:48:58;9.30;99.90
20700;DHT22;10511;51.232;9.420;2022-12-29T04:51:26;9.30;99.90
20700;DHT22;10511;51.232;9.420;2022-12-29T04:53:53;9.30;99.90
20700;DHT22;10511;51.232;9.420;2022-12-29T04:56:19;9.30;99.90
20700;DHT22;10511;51.232;9.420;2022-12-29T04:58:46;9.30;99.90
20700;DHT22;10511;51.232;9.420;2022-12-29T05:01:14;9.30;99.90
20700;DHT22;10511;51.232;9.420;2022-12-29T05:03:41;9.30;99.90
20700;DHT22;10511;51.232;9.420;2022-12-29T05:06:08;9.30;99.90
20700;DHT22;10511;51.232;9.420;2022-12-29T05:08:35;9.30;99.90
20700;DHT22;10511;51.232;9.420;2022-12-29T05:11:02;9.30;99.90
20700;DHT22;10511;51.232;9.420;2022-12-29T05:13:29;9.40;99.90
20700;DHT22;10511;51.232;9.420;2022-12-29T05:15:56;9.40;99.90
20700;DHT22;10511;51.232;9.420;2022-12-29T05:18:24;9.50;99.90
20700;DHT22;10511;51.232;9.420;2022-12-29T05:20:51;9.40;99.90
20700;DHT22;10511;51.232;9.420;2022-12-29T05:23:18;9.50;99.90
20700;DHT22;10511;51.232;9.420;2022-12-29T05:25:44;9.40;99.90
20700;DHT22;10511;51.232;9.420;2022-12-29T05:28:12;9.50;99.90
20700;DHT22;10511;51.232;9.420;2022-12-29T05:30:39;9.50;99.90
20700;DHT22;10511;51.232;9.420;2022-12-29T05:33:06;9.50;99.90
20700;DHT22;10511;51.232;9.420;2022-12-29T05:35:34;9.50;99.90
20700;DHT22;10511;51.232;9.420;2022-12-29T05:38:01;9.50;99.90
20700;DHT22;10511;51.232;9.420;2022-12-29T05:40:28;9.60;99.90
20700;DHT22;10511;51.232;9.420;2022-12-29T05:42:55;9.60;99.90
20700;DHT22;10511;51.232;9.420;2022-12-29T05:45:21;9.60;99.90
20700;DHT22;10511;51.232;9.420;2022-12-29T05:47:48;9.60;99.90
20700;DHT22;10511;51.232;9.420;2022-12-29T05:50:15;9.50;99.90
20700;DHT22;10511;51.232;9.420;2022-12-29T05:52:44;9.50;99.90
20700;DHT22;10511;51.232;9.420;2022-12-29T05:55:11;9.50;99.90
20700;DHT22;10511;51.232;9.420;2022-12-29T05:57:38;9.50;99.90
20700;DHT22;10511;51.232;9.420;2022-12-29T06:00:06;9.50;99.90
20700;DHT22;10511;51.232;9.420;2022-12-29T06:02:33;9.40;99.90
20700;DHT22;10511;51.232;9.420;2022-12-29T06:05:00;9.40;99.90
20700;DHT22;10511;51.232;9.420;2022-12-29T06:07:27;9.40;99.90
20700;DHT22;10511;51.232;9.420;2022-12-29T06:09:55;9.40;99.90
20700;DHT22;10511;51.232;9.420;2022-12-29T06:12:22;9.50;99.90
20700;DHT22;10511;51.232;9.420;2022-12-29T06:14:49;9.50;99.90
20700;DHT22;10511;51.232;9.420;2022-12-29T06:17:15;9.40;99.90
20700;DHT22;10511;51.232;9.420;2022-12-29T06:19:42;9.50;99.90
20700;DHT22;10511;51.232;9.420;2022-12-29T06:22:09;9.40;99.90
20700;DHT22;10511;51.232;9.420;2022-12-29T06:24:37;9.50;99.90
20700;DHT22;10511;51.232;9.420;2022-12-29T06:27:06;9.50;99.90
20700;DHT22;10511;51.232;9.420;2022-12-29T06:29:32;9.50;99.90
20700;DHT22;10511;51.232;9.420;2022-12-29T06:32:01;9.50;99.90
20700;DHT22;10511;51.232;9.420;2022-12-29T06:34:28;9.50;99.90
20700;DHT22;10511;51.232;9.420;2022-12-29T06:36:55;9.50;99.90
20700;DHT22;10511;51.232;9.420;2022-12-29T06:39:22;9.50;99.90
20700;DHT22;10511;51.232;9.420;2022-12-29T06:41:52;9.40;99.90
20700;DHT22;10511;51.232;9.420;2022-12-29T06:44:20;9.40;99.90
20700;DHT22;10511;51.232;9.420;2022-12-29T06:46:47;9.30;99.90
20700;DHT22;10511;51.232;9.420;2022-12-29T06:49:15;9.30;99.90
20700;DHT22;10511;51.232;9.420;2022-12-29T06:51:43;9.30;99.90
20700;DHT22;10511;51.232;9.420;2022-12-29T06:54:11;9.30;99.90
20700;DHT22;10511;51.232;9.420;2022-12-29T06:56:38;9.20;99.90
20700;DHT22;10511;51.232;9.420;2022-12-29T06:59:05;9.20;99.90
20700;DHT22;10511;51.232;9.420;2022-12-29T07:01:34;9.20;99.90
20700;DHT22;10511;51.232;9.420;2022-12-29T07:04:01;9.20;99.90
20700;DHT22;10511;51.232;9.420;2022-12-29T07:06:28;9.20;99.90
20700;DHT22;10511;51.232;9.420;2022-12-29T07:08:55;9.20;99.90
20700;DHT22;10511;51.232;9.420;2022-12-29T07:11:23;9.20;99.90
20700;DHT22;10511;51.232;9.420;2022-12-29T07:13:50;9.20;99.90
20700;DHT22;10511;51.232;9.420;2022-12-29T07:16:17;9.20;99.90
20700;DHT22;10511;51.232;9.420;2022-12-29T07:18:45;9.20;99.90
20700;DHT22;10511;51.232;9.420;2022-12-29T07:21:13;9.30;99.90
20700;DHT22;10511;51.232;9.420;2022-12-29T07:23:39;9.20;99.90
20700;DHT22;10511;51.232;9.420;2022-12-29T07:26:08;9.30;99.90
20700;DHT22;10511;51.232;9.420;2022-12-29T07:28:38;9.20;99.90
20700;DHT22;10511;51.232;9.420;2022-12-29T07:31:06;9.30;99.90
20700;DHT22;10511;51.232;9.420;2022-12-29T07:33:33;9.30;99.90
20700;DHT22;10511;51.232;9.420;2022-12-29T07:36:01;9.30;99.90
20700;DHT22;10511;51.232;9.420;2022-12-29T07:38:28;9.30;99.90
20700;DHT22;10511;51.232;9.420;2022-12-29T07:40:57;9.30;99.90
20700;DHT22;10511;51.232;9.420;2022-12-29T07:43:24;9.30;99.90
20700;DHT22;10511;51.232;9.420;2022-12-29T07:45:51;9.30;99.90
20700;DHT22;10511;51.232;9.420;2022-12-29T07:48:18;9.30;99.90
20700;DHT22;10511;51.232;9.420;2022-12-29T07:50:45;9.30;99.90
20700;DHT22;10511;51.232;9.420;2022-12-29T07:53:13;9.30;99.90
20700;DHT22;10511;51.232;9.420;2022-12-29T07:55:40;9.30;99.90
20700;DHT22;10511;51.232;9.420;2022-12-29T07:58:07;9.30;99.90
20700;DHT22;10511;51.232;9.420;2022-12-29T08:00:34;9.40;99.90
20700;DHT22;10511;51.232;9.420;2022-12-29T08:03:01;9.30;99.90
20700;DHT22;10511;51.232;9.420;2022-12-29T08:05:28;9.30;99.90
20700;DHT22;10511;51.232;9.420;2022-12-29T08:07:56;9.30;99.90
20700;DHT22;10511;51.232;9.420;2022-12-29T08:10:24;9.30;99.90
20700;DHT22;10511;51.232;9.420;2022-12-29T08:12:51;9.30;99.90
20700;DHT22;10511;51.232;9.420;2022-12-29T08:15:18;9.40;99.90
20700;DHT22;10511;51.232;9.420;2022-12-29T08:17:45;9.30;99.90
20700;DHT22;10511;51.232;9.420;2022-12-29T08:20:12;9.30;99.90
20700;DHT22;10511;51.232;9.420;2022-12-29T08:22:40;9.30;99.90
20700;DHT22;10511;51.232;9.420;2022-12-29T08:25:08;9.30;99.90
20700;DHT22;10511;51.232;9.420;2022-12-29T08:27:36;9.30;99.90
20700;DHT22;10511;51.232;9.420;2022-12-29T08:30:04;9.30;99.90
20700;DHT22;10511;51.232;9.420;2022-12-29T08:32:31;9.20;99.90
20700;DHT22;10511;51.232;9.420;2022-12-29T08:34:57;9.20;99.90
20700;DHT22;10511;51.232;9.420;2022-12-29T08:37:24;9.20;99.90
20700;DHT22;10511;51.232;9.420;2022-12-29T08:39:51;9.20;99.90
20700;DHT22;10511;51.232;9.420;2022-12-29T08:42:18;9.20;99.90
20700;DHT22;10511;51.232;9.420;2022-12-29T08:44:46;9.20;99.90
20700;DHT22;10511;51.232;9.420;2022-12-29T08:47:13;9.20;99.90
20700;DHT22;10511;51.232;9.420;2022-12-29T08:49:40;9.20;99.90
20700;DHT22;10511;51.232;9.420;2022-12-29T08:52:08;9.20;99.90
20700;DHT22;10511;51.232;9.420;2022-12-29T08:54:34;9.20;99.90
20700;DHT22;10511;51.232;9.420;2022-12-29T08:57:01;9.20;99.90
20700;DHT22;10511;51.232;9.420;2022-12-29T08:59:28;9.20;99.90
20700;DHT22;10511;51.232;9.420;2022-12-29T09:01:57;9.20;99.90
20700;DHT22;10511;51.232;9.420;2022-12-29T09:04:24;9.30;99.90
20700;DHT22;10511;51.232;9.420;2022-12-29T09:06:51;9.30;99.90
20700;DHT22;10511;51.232;9.420;2022-12-29T09:09:17;9.30;99.90
20700;DHT22;10511;51.232;9.420;2022-12-29T09:11:44;9.40;99.90
20700;DHT22;10511;51.232;9.420;2022-12-29T09:14:12;9.50;99.90
20700;DHT22;10511;51.232;9.420;2022-12-29T09:16:39;9.60;99.90
20700;DHT22;10511;51.232;9.420;2022-12-29T09:19:25;9.60;99.90
20700;DHT22;10511;51.232;9.420;2022-12-29T09:21:52;9.70;99.90
20700;DHT22;10511;51.232;9.420;2022-12-29T09:24:19;9.70;99.90
20700;DHT22;10511;51.232;9.420;2022-12-29T09:26:46;9.70;99.90
20700;DHT22;10511;51.232;9.420;2022-12-29T09:29:13;9.70;99.90
20700;DHT22;10511;51.232;9.420;2022-12-29T09:31:39;9.70;99.90
20700;DHT22;10511;51.232;9.420;2022-12-29T09:34:06;9.70;99.90
20700;DHT22;10511;51.232;9.420;2022-12-29T09:36:34;9.70;99.90
20700;DHT22;10511;51.232;9.420;2022-12-29T09:39:01;9.70;99.90
20700;DHT22;10511;51.232;9.420;2022-12-29T09:41:32;9.80;99.90
20700;DHT22;10511;51.232;9.420;2022-12-29T09:44:08;9.80;99.90
20700;DHT22;10511;51.232;9.420;2022-12-29T09:46:40;9.80;99.90
20700;DHT22;10511;51.232;9.420;2022-12-29T09:49:18;9.90;99.90
20700;DHT22;10511;51.232;9.420;2022-12-29T09:51:52;9.90;99.90
20700;DHT22;10511;51.232;9.420;2022-12-29T09:54:29;9.90;99.90
20700;DHT22;10511;51.232;9.420;2022-12-29T09:56:58;9.90;99.90
20700;DHT22;10511;51.232;9.420;2022-12-29T09:59:36;9.80;99.90
20700;DHT22;10511;51.232;9.420;2022-12-29T10:02:16;9.90;99.90
20700;DHT22;10511;51.232;9.420;2022-12-29T10:04:47;9.90;99.90
20700;DHT22;10511;51.232;9.420;2022-12-29T10:07:24;10.00;99.90
20700;DHT22;10511;51.232;9.420;2022-12-29T10:10:03;10.00;99.90
20700;DHT22;10511;51.232;9.420;2022-12-29T10:12:45;10.10;99.90
20700;DHT22;10511;51.232;9.420;2022-12-29T10:15:22;10.10;99.90
20700;DHT22;10511;51.232;9.420;2022-12-29T10:18:02;10.10;99.90
20700;DHT22;10511;51.232;9.420;2022-12-29T10:20:33;10.10;99.90
20700;DHT22;10511;51.232;9.420;2022-12-29T10:23:18;10.00;99.90
20700;DHT22;10511;51.232;9.420;2022-12-29T10:25:47;10.00;99.90
20700;DHT22;10511;51.232;9.420;2022-12-29T10:28:19;10.00;99.90
20700;DHT22;10511;51.232;9.420;2022-12-29T10:30:47;10.00;99.90
20700;DHT22;10511;51.232;9.420;2022-12-29T10:33:18;10.10;99.90
20700;DHT22;10511;51.232;9.420;2022-12-29T10:35:47;10.20;99.90
20700;DHT22;10511;51.232;9.420;2022-12-29T10:38:22;10.20;99.90
20700;DHT22;10511;51.232;9.420;2022-12-29T10:40:54;10.20;99.90
20700;DHT22;10511;51.232;9.420;2022-12-29T10:43:26;10.20;99.90
20700;DHT22;10511;51.232;9.420;2022-12-29T10:45:56;10.10;99.90
20700;DHT22;10511;51.232;9.420;2022-12-29T10:48:27;10.30;99.90
20700;DHT22;10511;51.232;9.420;2022-12-29T10:50:57;10.30;99.90
20700;DHT22;10511;51.232;9.420;2022-12-29T10:53:30;10.30;99.90
20700;DHT22;10511;51.232;9.420;2022-12-29T10:56:00;10.20;99.90
20700;DHT22;10511;51.232;9.420;2022-12-29T10:58:30;10.20;99.90
20700;DHT22;10511;51.232;9.420;2022-12-29T11:00:58;10.20;99.90
20700;DHT22;10511;51.232;9.420;2022-12-29T11:06:27;10.20;99.90
20700;DHT22;10511;51.232;9.420;2022-12-29T11:08:57;10.20;99.90
20700;DHT22;10511;51.232;9.420;2022-12-29T11:11:26;10.20;99.90
20700;DHT22;10511;51.232;9.420;2022-12-29T11:13:59;10.20;99.90
20700;DHT22;10511;51.232;9.420;2022-12-29T11:16:30;10.20;99.90
20700;DHT22;10511;51.232;9.420;2022-12-29T11:18:57;10.20;99.90
20700;DHT22;10511;51.232;9.420;2022-12-29T11:21:30;10.20;99.90
20700;DHT22;10511;51.232;9.420;2022-12-29T11:24:00;10.20;99.90
20700;DHT22;10511;51.232;9.420;2022-12-29T11:26:28;10.20;99.90
20700;DHT22;10511;51.232;9.420;2022-12-29T11:29:20;10.20;99.90
20700;DHT22;10511;51.232;9.420;2022-12-29T11:31:49;10.20;99.90
20700;DHT22;10511;51.232;9.420;2022-12-29T11:34:18;10.20;99.90
20700;DHT22;10511;51.232;9.420;2022-12-29T11:36:45;10.20;99.90
20700;DHT22;10511;51.232;9.420;2022-12-29T11:39:28;10.20;99.90
20700;DHT22;10511;51.232;9.420;2022-12-29T11:41:55;10.20;99.90
20700;DHT22;10511;51.232;9.420;2022-12-29T11:44:23;10.20;99.90
20700;DHT22;10511;51.232;9.420;2022-12-29T11:46:52;10.20;99.90
20700;DHT22;10511;51.232;9.420;2022-12-29T11:49:22;10.20;99.90
20700;DHT22;10511;51.232;9.420;2022-12-29T11:51:51;10.20;99.90
20700;DHT22;10511;51.232;9.420;2022-12-29T11:54:25;10.20;99.90
20700;DHT22;10511;51.232;9.420;2022-12-29T11:56:53;10.20;99.90
20700;DHT22;10511;51.232;9.420;2022-12-29T11:59:43;10.20;99.90
20700;DHT22;10511;51.232;9.420;2022-12-29T12:05:11;10.20;99.90
20700;DHT22;10511;51.232;9.420;2022-12-29T12:07:43;10.20;99.90
20700;DHT22;10511;51.232;9.420;2022-12-29T12:10:18;10.20;99.90
20700;DHT22;10511;51.232;9.420;2022-12-29T12:12:53;10.20;99.90
20700;DHT22;10511;51.232;9.420;2022-12-29T12:15:27;10.20;99.90
20700;DHT22;10511;51.232;9.420;2022-12-29T12:18:00;10.20;99.90
20700;DHT22;10511;51.232;9.420;2022-12-29T12:20:38;10.20;99.90
20700;DHT22;10511;51.232;9.420;2022-12-29T12:23:18;10.20;99.90
20700;DHT22;10511;51.232;9.420;2022-12-29T12:25:55;10.20;99.90
20700;DHT22;10511;51.232;9.420;2022-12-29T12:28:29;10.20;99.90
20700;DHT22;10511;51.232;9.420;2022-12-29T12:30:58;10.20;99.90
20700;DHT22;10511;51.232;9.420;2022-12-29T12:33:29;10.20;99.90
20700;DHT22;10511;51.232;9.420;2022-12-29T12:36:14;10.20;99.90
20700;DHT22;10511;51.232;9.420;2022-12-29T12:38:54;10.20;99.90
20700;DHT22;10511;51.232;9.420;2022-12-29T12:41:31;10.20;99.90
20700;DHT22;10511;51.232;9.420;2022-12-29T12:44:05;10.20;99.90
20700;DHT22;10511;51.232;9.420;2022-12-29T12:46:59;10.20;99.90
20700;DHT22;10511;51.232;9.420;2022-12-29T12:52:26;10.20;99.90
20700;DHT22;10511;51.232;9.420;2022-12-29T12:55:12;10.10;99.90
20700;DHT22;10511;51.232;9.420;2022-12-29T12:57:51;10.10;99.90
20700;DHT22;10511;51.232;9.420;2022-12-29T13:00:22;10.20;99.90
20700;DHT22;10511;51.232;9.420;2022-12-29T13:03:00;10.20;99.90
20700;DHT22;10511;51.232;9.420;2022-12-29T13:05:39;10.20;99.90
20700;DHT22;10511;51.232;9.420;2022-12-29T13:08:32;10.20;99.90
20700;DHT22;10511;51.232;9.420;2022-12-29T13:11:11;10.20;99.90
20700;DHT22;10511;51.232;9.420;2022-12-29T13:13:52;10.30;99.90
20700;DHT22;10511;51.232;9.420;2022-12-29T13:16:25;10.30;99.90
20700;DHT22;10511;51.232;9.420;2022-12-29T13:18:58;10.30;99.90
20700;DHT22;10511;51.232;9.420;2022-12-29T13:21:34;10.30;99.90
20700;DHT22;10511;51.232;9.420;2022-12-29T13:24:12;10.30;99.90
20700;DHT22;10511;51.232;9.420;2022-12-29T13:26:44;10.40;99.90
20700;DHT22;10511;51.232;9.420;2022-12-29T13:29:19;10.40;99.90
20700;DHT22;10511;51.232;9.420;2022-12-29T13:31:52;10.30;99.90
20700;DHT22;10511;51.232;9.420;2022-12-29T13:34:31;10.30;99.90
20700;DHT22;10511;51.232;9.420;2022-12-29T13:37:07;10.30;99.90
20700;DHT22;10511;51.232;9.420;2022-12-29T13:39:40;10.30;99.90
20700;DHT22;10511;51.232;9.420;2022-12-29T13:42:09;10.20;99.90
20700;DHT22;10511;51.232;9.420;2022-12-29T13:44:43;10.20;99.90
20700;DHT22;10511;51.232;9.420;2022-12-29T13:47:19;10.20;99.90
20700;DHT22;10511;51.232;9.420;2022-12-29T13:49:47;10.20;99.90
20700;DHT22;10511;51.232;9.420;2022-12-29T13:52:18;10.20;99.90
20700;DHT22;10511;51.232;9.420;2022-12-29T13:54:57;10.20;99.90
20700;DHT22;10511;51.232;9.420;2022-12-29T13:57:39;10.20;99.90
20700;DHT22;10511;51.232;9.420;2022-12-29T14:00:15;10.20;99.90
20700;DHT22;10511;51.232;9.420;2022-12-29T14:02:53;10.20;99.90
20700;DHT22;10511;51.232;9.420;2022-12-29T14:05:28;10.20;99.90
20700;DHT22;10511;51.232;9.420;2022-12-29T14:08:00;10.10;99.90
20700;DHT22;10511;51.232;9.420;2022-12-29T14:10:30;10.10;99.90
20700;DHT22;10511;51.232;9.420;2022-12-29T14:13:05;10.10;99.90
20700;DHT22;10511;51.232;9.420;2022-12-29T14:15:38;10.10;99.90
20700;DHT22;10511;51.232;9.420;2022-12-29T14:18:15;10.00;99.90
20700;DHT22;10511;51.232;9.420;2022-12-29T14:20:54;10.00;99.90
20700;DHT22;10511;51.232;9.420;2022-12-29T14:23:29;10.00;99.90
20700;DHT22;10511;51.232;9.420;2022-12-29T14:26:33;10.10;99.90
20700;DHT22;10511;51.232;9.420;2022-12-29T14:29:15;10.00;99.90
20700;DHT22;10511;51.232;9.420;2022-12-29T14:31:44;10.10;99.90
20700;DHT22;10511;51.232;9.420;2022-12-29T14:34:31;10.10;99.90
20700;DHT22;10511;51.232;9.420;2022-12-29T14:37:03;10.10;99.90
20700;DHT22;10511;51.232;9.420;2022-12-29T14:39:37;10.10;99.90
20700;DHT22;10511;51.232;9.420;2022-12-29T14:42:06;10.10;99.90
20700;DHT22;10511;51.232;9.420;2022-12-29T14:44:46;10.10;99.90
20700;DHT22;10511;51.232;9.420;2022-12-29T14:47:19;10.10;99.90
20700;DHT22;10511;51.232;9.420;2022-12-29T14:49:46;10.10;99.90
20700;DHT22;10511;51.232;9.420;2022-12-29T14:52:17;10.10;99.90
20700;DHT22;10511;51.232;9.420;2022-12-29T14:54:48;10.00;99.90
20700;DHT22;10511;51.232;9.420;2022-12-29T15:00:13;10.00;99.90
20700;DHT22;10511;51.232;9.420;2022-12-29T15:02:46;10.00;99.90
20700;DHT22;10511;51.232;9.420;2022-12-29T15:05:27;10.00;99.90
20700;DHT22;10511;51.232;9.420;2022-12-29T15:07:56;10.00;99.90
20700;DHT22;10511;51.232;9.420;2022-12-29T15:10:25;9.90;99.90
20700;DHT22;10511;51.232;9.420;2022-12-29T15:13:00;9.90;99.90
20700;DHT22;10511;51.232;9.420;2022-12-29T15:15:35;9.90;99.90
20700;DHT22;10511;51.232;9.420;2022-12-29T15:18:20;9.90;99.90
20700;DHT22;10511;51.232;9.420;2022-12-29T15:20:51;9.80;99.90
20700;DHT22;10511;51.232;9.420;2022-12-29T15:23:19;9.80;99.90
20700;DHT22;10511;51.232;9.420;2022-12-29T15:25:47;9.80;99.90
20700;DHT22;10511;51.232;9.420;2022-12-29T15:28:17;9.70;99.90
20700;DHT22;10511;51.232;9.420;2022-12-29T15:30:54;9.70;99.90
20700;DHT22;10511;51.232;9.420;2022-12-29T15:33:26;9.70;99.90
20700;DHT22;10511;51.232;9.420;2022-12-29T15:35:54;9.70;99.90
20700;DHT22;10511;51.232;9.420;2022-12-29T15:38:23;9.70;99.90
20700;DHT22;10511;51.232;9.420;2022-12-29T15:40:52;9.70;99.90
20700;DHT22;10511;51.232;9.420;2022-12-29T15:43:30;9.60;99.90
20700;DHT22;10511;51.232;9.420;2022-12-29T15:46:03;9.60;99.90
20700;DHT22;10511;51.232;9.420;2022-12-29T15:48:31;9.60;99.90
20700;DHT22;10511;51.232;9.420;2022-12-29T15:51:00;9.50;99.90
20700;DHT22;10511;51.232;9.420;2022-12-29T15:53:29;9.50;99.90
20700;DHT22;10511;51.232;9.420;2022-12-29T15:55:59;9.50;99.90
20700;DHT22;10511;51.232;9.420;2022-12-29T15:58:28;9.50;99.90
20700;DHT22;10511;51.232;9.420;2022-12-29T16:00:56;9.50;99.90
20700;DHT22;10511;51.232;9.420;2022-12-29T16:03:25;9.40;99.90
20700;DHT22;10511;51.232;9.420;2022-12-29T16:05:56;9.30;99.90
20700;DHT22;10511;51.232;9.420;2022-12-29T16:08:31;9.30;99.90
20700;DHT22;10511;51.232;9.420;2022-12-29T16:11:01;9.40;99.90
20700;DHT22;10511;51.232;9.420;2022-12-29T16:13:30;9.40;99.90
20700;DHT22;10511;51.232;9.420;2022-12-29T16:16:01;9.30;99.90
20700;DHT22;10511;51.232;9.420;2022-12-29T16:18:33;9.30;99.90
20700;DHT22;10511;51.232;9.420;2022-12-29T16:21:03;9.20;99.90